createdAt,value
2019-03-21T10:42:08.766Z,282.96
2019-03-21T10:43:38.289Z,283.03
2019-03-21T10:45:07.811Z,283.08
2019-03-21T10:46:38.130Z,283.11
2019-03-21T10:48:10.212Z,283.13
2019-03-21T10:49:39.809Z,283.19
2019-03-21T10:51:11.008Z,283.26
2019-03-21T10:52:42.212Z,283.33
2019-03-21T10:54:12.689Z,283.36
2019-03-21T10:55:43.014Z,283.44
2019-03-21T10:57:13.332Z,283.55
2019-03-21T10:58:42.846Z,283.63
2019-03-21T11:00:13.486Z,283.69
2019-03-21T11:01:43.407Z,283.72
2019-03-21T11:03:13.727Z,283.79
2019-03-21T11:04:43.325Z,283.85
2019-03-21T11:06:12.768Z,283.96
2019-03-21T11:07:42.207Z,284.01
2019-03-21T11:09:11.644Z,284.04
2019-03-21T11:10:41.168Z,284.08
2019-03-21T11:12:10.615Z,284.11
2019-03-21T11:13:40.147Z,284.14
2019-03-21T11:15:09.646Z,284.15
2019-03-21T11:16:39.090Z,284.17
2019-03-21T11:18:08.628Z,284.21
2019-03-21T11:19:38.368Z,284.26
2019-03-21T11:21:07.805Z,284.29
2019-03-21T11:22:37.247Z,284.36
2019-03-21T11:24:06.690Z,284.46
2019-03-21T11:25:36.128Z,284.49
2019-03-21T11:27:06.449Z,284.54
2019-03-21T11:28:36.769Z,284.58
2019-03-21T11:30:15.571Z,284.59
2019-03-21T11:31:49.087Z,284.64
2019-03-21T11:33:20.291Z,284.71
2019-03-21T11:34:50.608Z,284.77
2019-03-21T11:36:20.932Z,284.81
2019-03-21T11:37:50.690Z,284.85
2019-03-21T11:39:21.812Z,284.92
2019-03-21T11:40:53.565Z,284.98
2019-03-21T11:42:25.602Z,285.02
2019-03-21T11:43:56.446Z,285.06
2019-03-21T11:45:25.914Z,285.13
2019-03-21T11:46:56.424Z,285.17
2019-03-21T11:48:25.892Z,285.21
2019-03-21T11:49:55.568Z,285.22
2019-03-21T11:51:25.098Z,285.26
2019-03-21T11:52:54.531Z,285.29
2019-03-21T11:54:24.847Z,285.33
2019-03-21T11:55:54.285Z,285.37
2019-03-21T11:57:24.777Z,285.4
2019-03-21T11:58:54.287Z,285.41
2019-03-21T12:00:24.609Z,285.43
2019-03-21T12:01:54.208Z,285.46
2019-03-21T12:03:24.406Z,285.48
2019-03-21T12:04:53.968Z,285.53
2019-03-21T12:06:23.412Z,285.58
2019-03-21T12:07:53.406Z,285.6
2019-03-21T12:09:23.808Z,285.69
2019-03-21T12:10:53.245Z,285.8
2019-03-21T12:12:22.818Z,285.9
2019-03-21T12:13:52.290Z,285.95
2019-03-21T12:15:21.726Z,286
2019-03-21T12:16:51.166Z,286.03
2019-03-21T12:18:20.606Z,286.04
2019-03-21T12:19:50.051Z,286.05
2019-03-21T12:21:19.488Z,286.06
2019-03-21T12:22:48.926Z,286.08
2019-03-21T12:24:19.245Z,286.09
2019-03-21T12:25:48.770Z,286.15
2019-03-21T12:27:18.285Z,286.2
2019-03-21T12:28:47.724Z,286.24
2019-03-21T12:30:17.164Z,286.28
2019-03-21T12:31:46.605Z,286.34
2019-03-21T12:33:16.688Z,286.4
2019-03-21T12:34:46.525Z,286.45
2019-03-21T12:36:17.009Z,286.48
2019-03-21T12:37:46.448Z,286.51
2019-03-21T12:39:15.886Z,286.54
2019-03-21T12:40:45.325Z,286.57
2019-03-21T12:42:14.765Z,286.6
2019-03-21T12:43:44.210Z,286.65
2019-03-21T12:45:13.650Z,286.7
2019-03-21T12:46:43.087Z,286.75
2019-03-21T12:48:12.605Z,286.78
2019-03-21T12:49:42.045Z,286.8
2019-03-21T12:51:13.295Z,286.84
2019-03-21T15:37:39.820Z,290.28
2019-03-21T15:39:09.484Z,290.27
2019-03-21T15:40:38.922Z,290.26
2019-03-21T15:42:08.439Z,290.23
2019-03-21T15:43:37.884Z,290.24
2019-03-21T15:45:26.122Z,290.24
2019-03-21T15:46:55.564Z,290.23
2019-03-21T15:47:36.201Z,290.22
2019-03-21T15:51:49.641Z,290.26
2019-03-21T15:53:19.325Z,290.28
2019-03-21T15:54:50.622Z,290.28
2019-03-21T15:56:20.126Z,290.25
2019-03-21T15:57:51.405Z,290.22
2019-03-21T15:59:20.925Z,290.21
2019-03-21T16:00:50.363Z,290.17
2019-03-21T16:02:19.881Z,290.17
2019-03-21T16:03:49.414Z,290.16
2019-03-21T16:05:21.566Z,290.16
2019-03-21T16:06:51.882Z,290.14
2019-03-21T16:08:22.285Z,290.09
2019-03-21T16:09:53.645Z,290.05
2019-03-21T16:11:23.088Z,290.01
2019-03-21T16:12:53.085Z,289.97
2019-03-21T16:14:23.561Z,289.94
2019-03-21T16:15:53.004Z,289.91
2019-03-21T16:17:22.606Z,289.9
2019-03-21T16:18:52.207Z,289.85
2019-03-21T16:20:22.125Z,289.8
2019-03-21T16:21:51.643Z,289.74
2019-03-21T16:23:22.847Z,289.66
2019-03-21T16:24:54.212Z,289.57
2019-03-21T16:26:24.202Z,289.49
2019-03-21T16:27:53.722Z,289.41
2019-03-21T16:29:23.241Z,289.33
2019-03-21T16:31:09.746Z,289.26
2019-03-21T16:32:42.101Z,289.17
2019-03-21T16:34:12.846Z,289.08
2019-03-21T16:36:39.890Z,288.94
2019-03-21T16:38:11.801Z,288.83
2019-03-21T16:39:43.509Z,288.73
2019-03-21T16:41:13.535Z,288.66
2019-03-21T16:42:43.482Z,288.58
2019-03-21T16:44:15.223Z,288.49
2019-03-21T16:45:51.807Z,288.35
2019-03-21T16:47:23.256Z,288.21
2019-03-21T16:48:54.375Z,288.07
2019-03-21T16:50:26.370Z,287.96
2019-03-21T16:52:03.462Z,287.86
2019-03-21T16:53:36.086Z,287.76
2019-03-21T16:55:11.563Z,287.65
2019-03-21T17:00:54.769Z,287.21
2019-03-21T17:02:24.261Z,287.07
2019-03-21T17:03:53.720Z,286.93
2019-03-21T17:05:23.176Z,286.84
2019-03-21T17:08:39.943Z,286.72
2019-03-21T17:10:09.537Z,286.54
2019-03-21T17:11:39.883Z,286.41
2019-03-21T17:13:11.010Z,286.3
2019-03-21T17:14:42.287Z,286.17
2019-03-21T17:16:11.805Z,286.05
2019-03-21T17:17:42.281Z,285.97
2019-03-21T17:19:12.702Z,285.86
2019-03-21T17:20:43.104Z,285.77
2019-03-21T17:22:13.483Z,285.68
2019-03-21T17:23:43.110Z,285.58
2019-03-21T17:25:12.622Z,285.47
2019-03-21T17:26:42.371Z,285.34
2019-03-21T17:28:12.448Z,285.24
2019-03-21T17:29:41.899Z,285.13
2019-03-21T17:31:11.407Z,285.04
2019-03-21T17:32:40.850Z,284.95
2019-03-21T17:34:10.367Z,284.86
2019-03-21T17:35:39.888Z,284.74
2019-03-21T17:37:10.452Z,284.61
2019-03-21T17:38:40.056Z,284.48
2019-03-21T17:40:09.969Z,284.38
2019-03-21T17:41:39.508Z,284.26
2019-03-21T17:43:09.042Z,284.14
2019-03-21T17:44:38.532Z,284.01
2019-03-21T17:46:08.979Z,283.92
2019-03-21T17:47:38.470Z,283.82
2019-03-21T17:49:07.968Z,283.71
2019-03-21T17:50:37.414Z,283.61
2019-03-21T17:52:07.009Z,283.5
2019-03-21T17:53:37.427Z,283.39
2019-03-21T17:55:07.339Z,283.32
2019-03-21T17:56:36.847Z,283.22
2019-03-21T17:58:06.310Z,283.12
2019-03-21T17:59:35.808Z,283.05
2019-03-21T18:01:07.790Z,282.97
2019-03-21T18:04:38.040Z,282.87
2019-03-21T18:06:31.312Z,282.73
2019-03-21T18:08:02.850Z,282.62
2019-03-21T18:09:36.177Z,282.54
2019-03-21T18:11:12.962Z,282.47
2019-03-21T18:12:46.620Z,282.42
2019-03-21T18:14:19.911Z,282.35
2019-03-21T18:15:51.385Z,282.3
2019-03-21T18:17:23.500Z,282.23
2019-03-21T18:18:55.551Z,282.15
2019-03-21T18:20:33.294Z,282.07
2019-03-21T18:22:03.670Z,282
2019-03-21T18:23:34.823Z,281.93
2019-03-21T18:25:04.710Z,281.87
2019-03-21T18:26:38.059Z,281.8
2019-03-21T18:32:14.209Z,281.58
2019-03-21T18:33:43.729Z,281.53
2019-03-21T18:35:13.245Z,281.47
2019-03-21T18:36:42.845Z,281.43
2019-03-21T18:38:12.288Z,281.39
2019-03-21T18:39:41.802Z,281.37
2019-03-21T18:41:11.244Z,281.35
2019-03-21T18:42:40.722Z,281.3
2019-03-21T18:44:10.204Z,281.27
2019-03-21T18:45:39.738Z,281.24
2019-03-21T18:47:09.334Z,281.21
2019-03-21T18:48:41.494Z,281.16
2019-03-21T18:50:11.971Z,281.08
2019-03-21T18:51:43.251Z,281.03
2019-03-21T18:53:13.497Z,280.96
2019-03-21T18:54:44.689Z,280.88
2019-03-21T18:56:16.446Z,280.79
2019-03-21T18:57:47.644Z,280.73
2019-03-21T18:59:17.970Z,280.69
2019-03-21T19:00:47.570Z,280.64
2019-03-21T19:02:17.089Z,280.6
2019-03-21T19:03:46.525Z,280.56
2019-03-21T19:05:15.970Z,280.52
2019-03-21T19:06:45.495Z,280.47
2019-03-21T19:08:15.092Z,280.41
2019-03-21T19:09:44.523Z,280.36
2019-03-21T19:11:13.962Z,280.34
2019-03-21T19:12:43.497Z,280.31
2019-03-21T19:14:13.013Z,280.27
2019-03-21T19:15:42.767Z,280.24
2019-03-21T19:17:13.966Z,280.2
2019-03-21T19:18:43.483Z,280.16
2019-03-21T19:20:12.933Z,280.11
2019-03-21T19:21:42.365Z,280.1
2019-03-21T19:23:11.804Z,280.07
2019-03-21T19:24:42.128Z,280.04
2019-03-21T19:26:11.725Z,280.01
2019-03-21T19:27:41.563Z,279.96
2019-03-21T19:29:11.009Z,279.93
2019-03-21T19:30:40.530Z,279.91
2019-03-21T19:32:11.896Z,279.89
2019-03-21T19:33:41.888Z,279.86
2019-03-21T19:35:12.207Z,279.84
2019-03-21T19:36:42.528Z,279.79
2019-03-21T19:38:11.966Z,279.74
2019-03-21T19:39:42.584Z,279.68
2019-03-21T19:41:12.048Z,279.63
2019-03-21T19:42:42.445Z,279.59
2019-03-21T19:44:14.529Z,279.54
2019-03-21T19:45:44.845Z,279.5
2019-03-21T19:47:23.014Z,279.48
2019-03-21T19:49:01.806Z,279.44
2019-03-21T19:50:31.250Z,279.4
2019-03-21T19:52:00.777Z,279.37
2019-03-21T19:53:33.808Z,279.34
2019-03-21T19:55:03.326Z,279.29
2019-03-21T19:56:33.235Z,279.25
2019-03-21T19:58:02.697Z,279.21
2019-03-21T19:59:35.729Z,279.18
2019-03-21T20:01:05.162Z,279.16
2019-03-21T20:02:34.603Z,279.15
2019-03-21T20:04:04.044Z,279.13
2019-03-21T20:05:33.486Z,279.12
2019-03-21T20:07:03.809Z,279.12
2019-03-21T20:08:34.205Z,279.1
2019-03-21T20:10:04.709Z,279.09
2019-03-21T20:11:34.449Z,279.07
2019-03-21T20:13:03.969Z,279.05
2019-03-21T20:14:35.165Z,279.01
2019-03-21T20:16:05.248Z,278.98
2019-03-21T20:17:34.773Z,278.95
2019-03-21T20:19:05.085Z,278.92
2019-03-21T20:20:36.205Z,278.88
2019-03-21T20:22:05.647Z,278.84
2019-03-21T20:23:35.090Z,278.8
2019-03-21T20:25:04.530Z,278.77
2019-03-21T20:26:35.725Z,278.76
2019-03-21T20:28:05.170Z,278.72
2019-03-21T20:29:35.633Z,278.69
2019-03-21T20:31:06.211Z,278.65
2019-03-21T20:32:35.726Z,278.62
2019-03-21T20:34:05.171Z,278.58
2019-03-21T20:35:34.693Z,278.54
2019-03-21T20:37:04.125Z,278.51
2019-03-21T20:38:33.644Z,278.48
2019-03-21T20:40:03.085Z,278.45
2019-03-21T20:41:32.524Z,278.43
2019-03-21T20:43:02.044Z,278.4
2019-03-21T20:44:33.245Z,278.36
2019-03-21T20:46:03.454Z,278.37
2019-03-21T20:47:35.278Z,278.38
2019-03-21T20:49:06.529Z,278.36
2019-03-21T20:50:35.967Z,278.34
2019-03-21T20:52:05.492Z,278.3
2019-03-21T20:53:37.012Z,278.29
2019-03-21T20:55:07.414Z,278.27
2019-03-21T20:56:36.937Z,278.25
2019-03-21T20:58:06.445Z,278.24
2019-03-21T20:59:35.968Z,278.22
2019-03-21T21:01:08.131Z,278.2
2019-03-21T21:02:37.730Z,278.18
2019-03-21T21:04:08.040Z,278.18
2019-03-21T21:05:37.483Z,278.16
2019-03-21T21:07:06.924Z,278.16
2019-03-21T21:08:36.371Z,278.14
2019-03-21T21:10:07.654Z,278.13
2019-03-21T21:11:40.245Z,278.11
2019-03-21T21:13:11.042Z,278.08
2019-03-21T21:14:41.444Z,278.06
2019-03-21T21:16:10.925Z,278.03
2019-03-21T21:17:42.806Z,277.99
2019-03-21T21:19:12.770Z,277.97
2019-03-21T21:20:43.169Z,277.95
2019-03-21T21:22:12.608Z,277.9
2019-03-21T21:23:42.941Z,277.87
2019-03-21T21:25:12.696Z,277.83
2019-03-21T21:26:42.208Z,277.81
2019-03-21T21:28:11.723Z,277.77
2019-03-21T21:29:43.007Z,277.74
2019-03-21T21:31:15.243Z,277.72
2019-03-21T21:32:45.884Z,277.69
2019-03-21T21:34:15.646Z,277.67
2019-03-21T21:35:45.975Z,277.65
2019-03-21T21:37:16.371Z,277.65
2019-03-21T21:38:47.739Z,277.64
2019-03-21T21:40:18.134Z,277.62
2019-03-21T21:41:47.724Z,277.58
2019-03-21T21:43:17.164Z,277.52
2019-03-21T21:44:46.768Z,277.49
2019-03-21T21:46:17.172Z,277.44
2019-03-21T21:47:46.685Z,277.42
2019-03-21T21:49:18.215Z,277.41
2019-03-21T21:50:47.730Z,277.39
2019-03-21T21:52:18.044Z,277.36
2019-03-21T21:53:48.370Z,277.33
2019-03-21T21:55:18.723Z,277.3
2019-03-21T21:56:48.290Z,277.27
2019-03-21T21:58:17.886Z,277.26
2019-03-21T21:59:47.412Z,277.25
2019-03-21T22:01:16.934Z,277.25
2019-03-21T22:02:47.327Z,277.24
2019-03-21T22:04:17.725Z,277.2
2019-03-21T22:05:48.126Z,277.18
2019-03-21T22:07:20.286Z,277.17
2019-03-21T22:08:49.727Z,277.15
2019-03-21T22:10:20.130Z,277.14
2019-03-21T22:11:50.685Z,277.13
2019-03-21T22:13:20.448Z,277.13
2019-03-21T22:14:49.888Z,277.11
2019-03-21T22:16:20.209Z,277.11
2019-03-21T22:17:49.651Z,277.06
2019-03-21T22:19:19.967Z,277.04
2019-03-21T22:20:49.405Z,277.02
2019-03-21T22:22:19.357Z,277.01
2019-03-21T22:23:48.932Z,277.01
2019-03-21T22:25:19.325Z,276.98
2019-03-21T22:26:49.652Z,276.96
2019-03-21T22:28:19.167Z,276.94
2019-03-21T22:29:48.608Z,276.92
2019-03-21T22:31:18.132Z,276.88
2019-03-21T22:32:47.617Z,276.85
2019-03-21T22:34:19.031Z,276.82
2019-03-21T22:35:49.480Z,276.79
2019-03-21T22:37:19.814Z,276.76
2019-03-21T22:38:49.329Z,276.76
2019-03-21T22:40:18.768Z,276.75
2019-03-21T22:41:48.212Z,276.73
2019-03-21T22:43:18.536Z,276.73
2019-03-21T22:44:48.045Z,276.72
2019-03-21T22:46:17.565Z,276.72
2019-03-21T22:47:47.007Z,276.69
2019-03-21T22:49:20.207Z,276.69
2019-03-21T22:50:51.088Z,276.67
2019-03-21T22:52:20.525Z,276.64
2019-03-21T22:53:50.044Z,276.62
2019-03-21T22:55:19.492Z,276.6
2019-03-21T22:56:51.653Z,276.58
2019-03-21T22:58:31.333Z,276.55
2019-03-21T23:00:02.445Z,276.54
2019-03-21T23:01:31.893Z,276.53
2019-03-21T23:03:02.374Z,276.52
2019-03-21T23:04:31.807Z,276.5
2019-03-21T23:06:01.324Z,276.47
2019-03-21T23:07:31.738Z,276.44
2019-03-21T23:09:01.164Z,276.43
2019-03-21T23:10:31.488Z,276.41
2019-03-21T23:12:01.898Z,276.41
2019-03-21T23:13:32.312Z,276.4
2019-03-21T23:15:01.805Z,276.38
2019-03-21T23:16:32.286Z,276.37
2019-03-21T23:18:01.731Z,276.36
2019-03-21T23:19:31.245Z,276.33
2019-03-21T23:21:00.696Z,276.3
2019-03-21T23:22:30.247Z,276.29
2019-03-21T23:23:59.783Z,276.29
2019-03-21T23:25:29.565Z,276.26
2019-03-21T23:26:59.086Z,276.25
2019-03-21T23:28:28.604Z,276.25
2019-03-21T23:29:58.930Z,276.25
2019-03-21T23:31:28.370Z,276.25
2019-03-21T23:32:57.809Z,276.23
2019-03-21T23:34:29.086Z,276.22
2019-03-21T23:35:58.534Z,276.2
2019-03-21T23:37:27.966Z,276.2
2019-03-21T23:38:57.407Z,276.18
2019-03-21T23:40:26.847Z,276.16
2019-03-21T23:41:56.287Z,276.13
2019-03-21T23:43:26.607Z,276.1
2019-03-21T23:44:56.048Z,276.08
2019-03-21T23:46:25.739Z,276.04
2019-03-21T23:47:57.092Z,276.01
2019-03-21T23:49:28.287Z,275.99
2019-03-21T23:50:58.684Z,275.98
2019-03-21T23:52:29.005Z,275.97
2019-03-21T23:53:58.547Z,275.97
2019-03-21T23:55:28.046Z,275.96
2019-03-21T23:57:09.005Z,275.96
2019-03-21T23:58:39.328Z,275.92
